createdAt,value
2022-09-12T00:04:41.287Z,100.00
2022-09-12T00:09:42.960Z,100.00
2022-09-12T00:14:44.566Z,100.00
2022-09-12T00:19:46.237Z,100.00
2022-09-12T00:24:47.839Z,100.00
2022-09-12T00:29:49.461Z,100.00
2022-09-12T00:34:51.091Z,100.00
2022-09-12T00:39:52.752Z,100.00
2022-09-12T00:44:54.449Z,100.00
2022-09-12T00:50:13.125Z,100.00
2022-09-12T00:55:19.606Z,100.00
2022-09-12T01:00:24.283Z,100.00
2022-09-12T01:05:28.327Z,100.00
2022-09-12T01:10:31.613Z,100.00
2022-09-12T01:15:34.054Z,100.00
2022-09-12T01:20:42.606Z,100.00
2022-09-12T01:26:14.982Z,100.00
2022-09-12T01:31:26.716Z,100.00
2022-09-12T01:36:37.566Z,100.00
2022-09-12T01:41:46.936Z,100.00
2022-09-12T01:47:01.081Z,100.00
2022-09-12T01:52:12.187Z,100.00
2022-09-12T01:57:25.667Z,100.00
2022-09-12T02:02:33.313Z,100.00
2022-09-12T02:07:49.523Z,100.00
2022-09-12T02:13:00.669Z,100.00
2022-09-12T02:18:05.534Z,100.00
2022-09-12T02:23:11.920Z,100.00
2022-09-12T02:28:26.600Z,100.00
2022-09-12T02:33:46.995Z,100.00
2022-09-12T02:38:48.882Z,100.00
2022-09-12T02:43:51.650Z,100.00
2022-09-12T02:48:54.141Z,100.00
2022-09-12T02:53:57.107Z,100.00
2022-09-12T02:59:05.223Z,100.00
2022-09-12T03:04:22.068Z,100.00
2022-09-12T03:09:37.539Z,100.00
2022-09-12T03:14:48.546Z,100.00
2022-09-12T03:20:00.758Z,100.00
2022-09-12T03:25:08.022Z,100.00
2022-09-12T03:30:11.047Z,100.00
2022-09-12T03:35:14.345Z,100.00
2022-09-12T03:40:16.158Z,100.00
2022-09-12T03:45:17.904Z,100.00
2022-09-12T03:50:19.576Z,100.00
2022-09-12T03:55:21.159Z,100.00
2022-09-12T04:00:24.298Z,100.00
2022-09-12T04:05:26.655Z,100.00
2022-09-12T04:10:28.251Z,100.00
2022-09-12T04:15:29.959Z,100.00
2022-09-12T04:20:31.566Z,100.00
2022-09-12T04:25:33.179Z,100.00
2022-09-12T04:30:35.228Z,100.00
2022-09-12T04:35:37.234Z,100.00
2022-09-12T04:40:38.846Z,100.00
2022-09-12T04:45:40.485Z,100.00
2022-09-12T04:50:42.105Z,100.00
2022-09-12T04:55:43.769Z,100.00
2022-09-12T05:00:45.390Z,100.00
2022-09-12T05:05:46.992Z,100.00
2022-09-12T05:10:48.597Z,100.00
2022-09-12T05:15:57.860Z,100.00
2022-09-12T05:21:01.051Z,100.00
2022-09-12T05:26:04.694Z,100.00
2022-09-12T05:31:13.537Z,100.00
2022-09-12T05:36:20.822Z,100.00
2022-09-12T05:41:25.588Z,100.00
2022-09-12T05:46:32.745Z,100.00
2022-09-12T05:51:38.073Z,100.00
2022-09-12T05:56:42.522Z,100.00
2022-09-12T06:01:44.829Z,100.00
2022-09-12T06:06:46.926Z,100.00
2022-09-12T06:11:48.553Z,100.00
2022-09-12T06:16:50.623Z,100.00
2022-09-12T06:21:52.776Z,100.00
2022-09-12T06:26:54.601Z,100.00
2022-09-12T06:31:56.201Z,100.00
2022-09-12T06:36:58.004Z,100.00
2022-09-12T06:41:59.611Z,100.00
2022-09-12T06:47:10.981Z,100.00
2022-09-12T06:52:12.655Z,100.00
2022-09-12T06:57:14.781Z,97.97
2022-09-12T07:02:16.403Z,98.05
2022-09-12T07:07:18.064Z,96.36
2022-09-12T07:12:19.685Z,95.38
2022-09-12T07:17:21.328Z,93.93
2022-09-12T07:22:23.029Z,95.30
2022-09-12T07:27:24.706Z,93.90
2022-09-12T07:32:27.079Z,93.54
2022-09-12T07:37:33.030Z,93.11
2022-09-12T07:42:34.659Z,92.25
2022-09-12T07:47:36.566Z,91.63
2022-09-12T07:52:38.213Z,89.65
2022-09-12T07:57:39.837Z,84.56
2022-09-12T08:02:41.511Z,81.88
2022-09-12T08:07:43.163Z,82.87
2022-09-12T08:12:44.802Z,72.88
2022-09-12T08:17:46.428Z,65.74
2022-09-12T08:22:48.083Z,62.72
2022-09-12T08:27:49.706Z,63.81
2022-09-12T08:32:51.314Z,65.12
2022-09-12T08:37:52.908Z,65.73
2022-09-12T08:43:01.525Z,74.24
2022-09-12T08:48:06.028Z,77.94
2022-09-12T08:53:16.368Z,67.56
2022-09-12T08:58:22.820Z,54.42
2022-09-12T09:03:49.389Z,50.17
2022-09-12T09:09:22.088Z,59.89
2022-09-12T09:14:59.162Z,61.58
2022-09-12T09:20:16.308Z,66.50
2022-09-12T09:25:24.495Z,52.81
2022-09-12T09:30:26.534Z,50.21
2022-09-12T09:35:49.074Z,48.72
2022-09-12T09:41:07.136Z,45.16
2022-09-12T09:46:08.950Z,52.77
2022-09-12T09:51:11.893Z,54.14
2022-09-12T09:56:29.223Z,68.59
2022-09-12T10:01:30.954Z,54.12
2022-09-12T10:06:34.408Z,45.77
2022-09-12T10:11:39.764Z,45.49
2022-09-12T10:16:53.419Z,48.76
2022-09-12T10:21:56.247Z,45.98
2022-09-12T10:27:05.872Z,47.18
2022-09-12T10:32:09.331Z,43.68
2022-09-12T10:37:28.851Z,47.39
2022-09-12T10:42:50.438Z,42.18
2022-09-12T10:47:54.442Z,43.70
2022-09-12T10:53:13.858Z,48.70
2022-09-12T10:58:47.056Z,44.75
2022-09-12T11:04:20.583Z,42.56
2022-09-12T11:09:32.991Z,47.39
2022-09-12T11:14:34.534Z,52.90
2022-09-12T11:20:10.521Z,51.15
2022-09-12T11:25:35.135Z,56.14
2022-09-12T11:30:51.673Z,52.57
2022-09-12T11:35:55.576Z,46.62
2022-09-12T11:41:04.220Z,43.63
2022-09-12T11:46:36.357Z,42.85
2022-09-12T11:51:56.620Z,47.90
2022-09-12T11:57:19.992Z,50.71
2022-09-12T12:02:27.788Z,54.48
2022-09-12T12:07:40.248Z,52.96
2022-09-12T12:12:45.218Z,54.08
2022-09-12T12:18:22.040Z,54.08
2022-09-12T12:23:35.404Z,50.24
2022-09-12T12:28:43.112Z,53.58
2022-09-12T12:33:44.656Z,54.48
2022-09-12T12:38:46.426Z,54.88
2022-09-12T12:43:50.840Z,53.94
2022-09-12T12:49:07.411Z,53.88
2022-09-12T12:54:31.193Z,50.27
2022-09-12T12:59:33.684Z,48.72
2022-09-12T13:04:35.469Z,46.48
2022-09-12T13:09:43.693Z,46.09
2022-09-12T13:14:55.203Z,47.15
2022-09-12T13:20:34.569Z,47.20
2022-09-12T13:25:37.393Z,51.08
2022-09-12T13:30:58.334Z,55.59
2022-09-12T13:36:46.252Z,50.80
2022-09-12T13:42:07.493Z,51.20
2022-09-12T13:47:15.293Z,50.97
2022-09-12T13:52:25.789Z,53.07
2022-09-12T13:57:31.895Z,51.42
2022-09-12T14:02:36.081Z,49.13
2022-09-12T14:07:54.495Z,51.67
2022-09-12T14:12:57.451Z,51.66
2022-09-12T14:18:01.806Z,51.41
2022-09-12T14:23:27.585Z,52.00
2022-09-12T14:28:31.200Z,51.60
2022-09-12T14:33:53.440Z,52.07
2022-09-12T14:39:04.148Z,53.20
2022-09-12T14:44:10.619Z,52.26
2022-09-12T14:49:26.887Z,50.88
2022-09-12T14:54:28.539Z,55.31
2022-09-12T14:59:36.131Z,57.63
2022-09-12T15:04:42.259Z,57.10
2022-09-12T15:09:47.277Z,57.96
2022-09-12T15:14:49.123Z,58.66
2022-09-12T15:19:50.747Z,57.49
2022-09-12T15:24:53.378Z,57.70
2022-09-12T15:29:55.195Z,57.99
2022-09-12T15:34:56.921Z,60.77
2022-09-12T15:39:58.548Z,61.56
2022-09-12T15:45:02.593Z,61.51
2022-09-12T15:50:05.290Z,61.83
2022-09-12T15:55:16.755Z,62.47
2022-09-12T16:00:19.408Z,62.41
2022-09-12T16:05:25.738Z,64.74
2022-09-12T16:10:31.281Z,65.14
2022-09-12T16:15:32.940Z,69.09
2022-09-12T16:20:34.559Z,72.21
2022-09-12T16:25:37.614Z,72.72
2022-09-12T16:30:39.358Z,73.61
2022-09-12T16:35:40.947Z,76.09
2022-09-12T16:40:42.571Z,75.97
2022-09-12T16:45:44.831Z,76.03
2022-09-12T16:50:56.504Z,76.97
2022-09-12T16:55:58.200Z,76.70
2022-09-12T17:01:17.951Z,78.71
2022-09-12T17:06:20.132Z,81.26
2022-09-12T17:11:26.931Z,81.55
2022-09-12T17:16:29.006Z,81.92
2022-09-12T17:21:31.197Z,84.03
2022-09-12T17:26:32.971Z,84.06
2022-09-12T17:31:34.681Z,83.53
2022-09-12T17:36:36.992Z,83.41
2022-09-12T17:41:38.924Z,83.93
2022-09-12T17:46:41.112Z,85.62
2022-09-12T17:51:43.989Z,86.39
2022-09-12T17:56:47.369Z,86.94
2022-09-12T18:02:07.440Z,87.01
2022-09-12T18:07:09.154Z,89.10
2022-09-12T18:12:10.988Z,87.78
2022-09-12T18:17:12.578Z,90.45
2022-09-12T18:22:14.270Z,91.58
2022-09-12T18:27:15.898Z,92.10
2022-09-12T18:32:17.489Z,92.35
2022-09-12T18:37:19.082Z,94.86
2022-09-12T18:42:20.687Z,95.21
2022-09-12T18:47:23.416Z,96.65
2022-09-12T18:52:25.076Z,97.52
2022-09-12T18:57:26.683Z,98.32
2022-09-12T19:02:28.647Z,98.43
2022-09-12T19:07:30.280Z,100.00
2022-09-12T19:12:31.863Z,100.00
2022-09-12T19:17:33.462Z,100.00
2022-09-12T19:22:35.104Z,100.00
2022-09-12T19:27:36.803Z,100.00
2022-09-12T19:32:39.297Z,100.00
2022-09-12T19:37:40.900Z,100.00
2022-09-12T19:42:42.921Z,100.00
2022-09-12T19:47:44.560Z,100.00
2022-09-12T19:52:46.157Z,100.00
2022-09-12T19:57:47.783Z,100.00
2022-09-12T20:02:53.547Z,100.00
2022-09-12T20:07:55.217Z,100.00
2022-09-12T20:12:56.819Z,100.00
2022-09-12T20:17:58.427Z,100.00
2022-09-12T20:23:00.037Z,100.00
2022-09-12T20:28:01.636Z,100.00
2022-09-12T20:33:03.246Z,100.00
2022-09-12T20:38:04.831Z,100.00
2022-09-12T20:43:06.443Z,100.00
2022-09-12T20:48:08.106Z,100.00
2022-09-12T20:53:09.989Z,100.00
2022-09-12T20:58:11.575Z,100.00
2022-09-12T21:03:14.703Z,100.00
2022-09-12T21:08:16.402Z,100.00
2022-09-12T21:13:18.058Z,100.00
2022-09-12T21:18:19.653Z,100.00
2022-09-12T21:23:21.884Z,100.00
2022-09-12T21:28:23.526Z,100.00
2022-09-12T21:33:25.161Z,100.00
2022-09-12T21:38:26.780Z,100.00
2022-09-12T21:43:28.380Z,100.00
2022-09-12T21:48:30.201Z,100.00
2022-09-12T21:53:32.273Z,100.00
2022-09-12T21:58:34.481Z,100.00
2022-09-12T22:03:36.143Z,100.00
2022-09-12T22:08:38.928Z,100.00
2022-09-12T22:13:44.031Z,100.00
2022-09-12T22:18:50.652Z,100.00
2022-09-12T22:24:10.556Z,100.00
2022-09-12T22:29:16.128Z,100.00
2022-09-12T22:34:17.734Z,100.00
2022-09-12T22:39:19.420Z,100.00
2022-09-12T22:44:21.102Z,100.00
2022-09-12T22:49:22.759Z,100.00
2022-09-12T22:54:24.383Z,100.00
2022-09-12T22:59:25.982Z,100.00
2022-09-12T23:04:27.708Z,100.00
2022-09-12T23:09:34.633Z,100.00
2022-09-12T23:14:37.063Z,100.00
2022-09-12T23:19:38.660Z,100.00
2022-09-12T23:24:40.352Z,100.00
2022-09-12T23:29:41.984Z,100.00
2022-09-12T23:34:43.579Z,100.00
2022-09-12T23:39:45.239Z,100.00
2022-09-12T23:44:46.854Z,100.00
2022-09-12T23:49:48.480Z,100.00
2022-09-12T23:54:50.067Z,100.00
2022-09-12T23:59:51.739Z,100.00
